Time;durP1;ratioP1;P1;durP2;ratioP2;P2;SDS_P1;SDS_P2;PMS_P1;PMS_P2;Temp;Humidity;BMP_temperature;BMP_pressure;BME280_temperature;BME280_humidity;BME280_pressure;Samples;Min_cycle;Max_cycle;Signal;HPM_P1;HPM_P2
2023/01/19 00:00:58;;;;;;;0.70;0.13;;;;;;;-0.23;100.00;99829.03;5057236;28;20108;-54
2023/01/19 00:03:23;;;;;;;1.05;0.13;;;;;;;-0.42;100.00;99835.03;5059844;28;20122;-50
2023/01/19 00:05:49;;;;;;;0.40;0.40;;;;;;;-0.45;100.00;99840.50;5054004;28;20095;-55
2023/01/19 00:08:14;;;;;;;2.78;0.03;;;;;;;-0.39;100.00;99847.78;5058151;28;20024;-52
2023/01/19 00:10:45;;;;;;;0.93;0.10;;;;;;;-0.30;100.00;99844.38;5056455;28;20163;-50
2023/01/19 00:13:12;;;;;;;4.22;0.20;;;;;;;-0.25;100.00;99838.75;5057582;28;20029;-53
2023/01/19 00:15:37;;;;;;;0.32;0.22;;;;;;;-0.25;100.00;99846.56;5060336;28;20107;-52
2023/01/19 00:18:03;;;;;;;1.20;0.50;;;;;;;-0.26;100.00;99850.13;5059181;28;20142;-54
2023/01/19 00:20:30;;;;;;;1.70;0.28;;;;;;;-0.31;100.00;99844.50;5055470;28;20115;-55
2023/01/19 00:22:56;;;;;;;1.35;0.20;;;;;;;-0.35;100.00;99841.34;5057775;28;20136;-51
2023/01/19 00:25:21;;;;;;;0.20;0.05;;;;;;;-0.81;100.00;99840.19;5048058;28;20155;-51
2023/01/19 00:27:48;;;;;;;0.43;0.05;;;;;;;-0.90;100.00;99848.81;5054263;28;20029;-53
2023/01/19 00:30:14;;;;;;;0.45;0.03;;;;;;;-0.93;100.00;99843.84;5058656;28;20055;-54
2023/01/19 00:32:40;;;;;;;2.22;0.25;;;;;;;-1.02;100.00;99847.25;5056414;28;20470;-54
2023/01/19 00:35:06;;;;;;;0.68;0.63;;;;;;;-0.76;100.00;99845.00;5053216;28;20100;-54
2023/01/19 00:37:31;;;;;;;1.05;0.43;;;;;;;-0.73;100.00;99860.34;5061056;28;20048;-55
2023/01/19 00:39:56;;;;;;;2.80;0.40;;;;;;;-0.70;100.00;99863.50;5059683;28;20044;-53
2023/01/19 00:42:40;;;;;;;1.15;0.20;;;;;;;-0.82;100.00;99863.75;5059208;28;20097;-50
2023/01/19 00:45:14;;;;;;;3.30;0.10;;;;;;;-0.93;100.00;99868.09;5057254;28;20379;-54
2023/01/19 00:47:40;;;;;;;3.50;0.10;;;;;;;-0.96;100.00;99870.13;5055843;28;20033;-54
2023/01/19 00:50:07;;;;;;;0.13;0.00;;;;;;;-0.87;100.00;99866.75;5067186;28;20113;-49
2023/01/19 00:52:33;;;;;;;1.70;0.68;;;;;;;-0.76;100.00;99869.22;5060148;28;20123;-55
2023/01/19 00:54:58;;;;;;;6.47;0.22;;;;;;;-0.93;100.00;99867.25;5058822;28;20107;-49
2023/01/19 00:57:24;;;;;;;0.63;0.08;;;;;;;-0.87;100.00;99866.75;5068743;28;20033;-54
2023/01/19 00:59:49;;;;;;;0.10;0.10;;;;;;;-0.97;100.00;99874.50;5051615;28;20025;-54
2023/01/19 01:02:14;;;;;;;0.08;0.00;;;;;;;-1.05;100.00;99876.13;5068298;28;20036;-50
2023/01/19 01:04:40;;;;;;;7.93;0.15;;;;;;;-0.71;100.00;99882.69;5066316;28;20028;-51
2023/01/19 01:07:05;;;;;;;0.20;0.00;;;;;;;-0.81;100.00;99881.00;5064628;28;20032;-52
2023/01/19 01:09:31;;;;;;;2.60;0.20;;;;;;;-0.85;100.00;99875.25;5060875;28;20557;-55
2023/01/19 01:11:56;;;;;;;3.13;1.75;;;;;;;-1.11;100.00;99875.72;5059768;28;20059;-53
2023/01/19 01:14:22;;;;;;;0.82;0.13;;;;;;;-1.13;100.00;99876.78;5061583;28;20033;-50
2023/01/19 01:16:49;;;;;;;0.17;0.00;;;;;;;-1.05;100.00;99874.34;5062971;28;20429;-55
2023/01/19 01:19:14;;;;;;;0.43;0.17;;;;;;;-1.12;100.00;99873.22;5054319;28;20037;-52
2023/01/19 01:21:40;;;;;;;0.20;0.20;;;;;;;-1.19;100.00;99867.72;5067432;28;20179;-49
2023/01/19 01:24:06;;;;;;;0.30;0.10;;;;;;;-1.19;100.00;99869.50;5052225;28;20029;-55
2023/01/19 01:26:31;;;;;;;2.05;0.75;;;;;;;-1.30;100.00;99860.00;5058396;28;20025;-50
2023/01/19 01:28:57;;;;;;;2.13;0.30;;;;;;;-1.37;100.00;99864.91;5059176;28;20075;-54
2023/01/19 01:31:22;;;;;;;2.20;0.30;;;;;;;-1.51;100.00;99857.44;5055186;28;20024;-55
2023/01/19 01:33:48;;;;;;;0.50;0.20;;;;;;;-1.52;100.00;99862.75;5060749;28;20386;-50
2023/01/19 01:36:13;;;;;;;1.60;0.08;;;;;;;-1.42;100.00;99863.63;5069316;28;20103;-52
2023/01/19 01:38:41;;;;;;;3.97;1.02;;;;;;;-1.18;100.00;99861.56;5058398;28;20051;-52
2023/01/19 01:41:07;;;;;;;3.85;0.00;;;;;;;-1.05;100.00;99857.91;5063693;28;20032;-53
2023/01/19 01:43:57;;;;;;;2.38;0.10;;;;;;;-1.18;100.00;99861.56;5055029;28;20036;-52
2023/01/19 01:46:23;;;;;;;2.45;0.52;;;;;;;-1.29;100.00;99853.84;5071889;28;20036;-52
2023/01/19 01:49:01;;;;;;;0.55;0.10;;;;;;;-1.34;100.00;99866.44;5063233;28;20021;-53
2023/01/19 01:51:35;;;;;;;0.35;0.00;;;;;;;-1.51;100.00;99873.03;5061155;28;20067;-52
2023/01/19 01:54:11;;;;;;;3.17;0.52;;;;;;;-1.52;100.00;99874.00;5074396;28;20445;-55
2023/01/19 01:56:41;;;;;;;2.03;0.20;;;;;;;-1.57;100.00;99870.97;5064604;28;20036;-56
2023/01/19 01:59:11;;;;;;;0.98;0.47;;;;;;;-1.62;100.00;99873.94;5053930;28;20676;-53
2023/01/19 02:04:21;;;;;;;0.10;0.10;;;;;;;-1.44;100.00;99868.16;5065173;28;20078;-56
2023/01/19 02:15:03;;;;;;;0.20;0.10;;;;;;;-1.34;100.00;99869.84;5066289;28;20106;-54
2023/01/19 02:17:29;;;;;;;3.17;0.20;;;;;;;-1.39;100.00;99871.19;5068383;28;20024;-54
2023/01/19 02:19:55;;;;;;;1.90;0.20;;;;;;;-1.39;100.00;99871.19;5058424;28;20037;-51
2023/01/19 02:22:34;;;;;;;2.58;0.32;;;;;;;-1.41;100.00;99873.09;5056094;28;20037;-50
2023/01/19 02:25:00;;;;;;;0.35;0.10;;;;;;;-1.57;100.00;99868.34;5060563;28;20115;-51
2023/01/19 02:27:25;;;;;;;0.17;0.10;;;;;;;-1.67;100.00;99877.88;5062690;28;20462;-53
2023/01/19 02:29:51;;;;;;;0.10;0.05;;;;;;;-1.64;100.00;99881.03;5056023;28;20507;-53
2023/01/19 02:32:16;;;;;;;0.70;0.10;;;;;;;-1.66;100.00;99876.91;5055849;28;20036;-53
2023/01/19 02:34:42;;;;;;;3.58;1.25;;;;;;;-1.77;100.00;99873.41;5057929;28;20087;-54
2023/01/19 02:37:13;;;;;;;2.50;0.55;;;;;;;-1.86;100.00;99878.53;5065633;28;20476;-56
2023/01/19 02:39:44;;;;;;;5.25;0.20;;;;;;;-1.87;100.00;99869.94;5063937;28;20529;-53
2023/01/19 02:42:14;;;;;;;1.25;0.28;;;;;;;-1.87;100.00;99876.91;5063728;28;20162;-54
2023/01/19 02:44:44;;;;;;;0.30;0.10;;;;;;;-1.89;100.00;99878.81;5058018;28;20040;-53
2023/01/19 02:47:10;;;;;;;0.50;0.30;;;;;;;-2.05;100.00;99879.22;5059593;28;20306;-50
2023/01/19 02:49:36;;;;;;;2.15;0.10;;;;;;;-2.18;100.00;99879.41;5064126;28;20044;-53
2023/01/19 02:52:03;;;;;;;0.30;0.20;;;;;;;-2.31;100.00;99876.97;5080146;28;20416;-52
2023/01/19 02:54:40;;;;;;;3.65;0.30;;;;;;;-2.32;100.00;99877.06;5057039;28;20418;-53
2023/01/19 02:57:44;;;;;;;1.10;0.10;;;;;;;-2.45;100.00;99878.06;5064652;28;20033;-57
2023/01/19 03:00:12;;;;;;;0.57;0.15;;;;;;;-2.57;100.00;99879.03;5041549;28;20589;-54
2023/01/19 03:02:40;;;;;;;3.15;0.20;;;;;;;-2.62;100.00;99881.16;5062246;28;20068;-56
2023/01/19 03:05:17;;;;;;;1.23;0.30;;;;;;;-2.71;100.00;99881.88;5067554;28;20104;-54
2023/01/19 03:07:49;;;;;;;0.47;0.47;;;;;;;-2.80;100.00;99887.81;5061686;28;20103;-56
2023/01/19 03:10:14;;;;;;;0.68;0.20;;;;;;;-2.69;100.00;99893.78;5064534;28;20383;-52
2023/01/19 03:12:47;;;;;;;1.95;0.10;;;;;;;-2.59;100.00;99895.69;5061066;28;20037;-54
2023/01/19 03:15:21;;;;;;;0.60;0.28;;;;;;;-2.58;100.00;99899.91;5058253;28;20495;-54
2023/01/19 03:17:50;;;;;;;1.27;0.32;;;;;;;-2.51;100.00;99896.72;5056848;28;20107;-54
2023/01/19 03:20:21;;;;;;;2.58;0.25;;;;;;;-2.37;100.00;99905.22;5049472;28;20084;-57
2023/01/19 03:22:50;;;;;;;2.05;0.68;;;;;;;-2.43;100.00;99901.31;5054621;28;20422;-52
2023/01/19 03:25:18;;;;;;;4.88;0.30;;;;;;;-2.43;100.00;99902.16;5064323;28;20032;-56
2023/01/19 03:27:46;;;;;;;3.85;0.82;;;;;;;-2.36;100.00;99896.47;5048712;28;20009;-53
2023/01/19 03:30:25;;;;;;;0.38;0.17;;;;;;;-2.33;100.00;99897.03;5064817;28;20029;-54
2023/01/19 03:32:59;;;;;;;2.47;0.60;;;;;;;-2.37;100.00;99906.03;5067854;28;20031;-57
2023/01/19 03:35:30;;;;;;;0.85;0.30;;;;;;;-2.37;100.00;99906.03;5068219;28;20082;-51
2023/01/19 03:37:59;;;;;;;0.57;0.32;;;;;;;-2.34;100.00;99902.34;5063868;28;20024;-54
2023/01/19 03:40:28;;;;;;;1.48;0.20;;;;;;;-2.39;100.00;99897.53;5058316;28;20234;-53
2023/01/19 03:42:54;;;;;;;2.83;0.55;;;;;;;-2.37;100.00;99900.00;5067114;28;20016;-53
2023/01/19 03:45:21;;;;;;;5.20;0.50;;;;;;;-2.37;100.00;99895.63;5062508;28;20106;-57
2023/01/19 03:47:47;;;;;;;2.53;0.82;;;;;;;-2.31;100.00;99894.31;5061899;28;20108;-52
2023/01/19 03:50:23;;;;;;;2.90;1.30;;;;;;;-2.27;100.00;99898.31;5066323;28;20120;-56
2023/01/19 03:53:09;;;;;;;2.83;0.20;;;;;;;-2.32;100.00;99895.25;5060990;28;20033;-56
2023/01/19 03:55:37;;;;;;;1.73;0.28;;;;;;;-2.40;100.00;99895.88;5067025;28;20028;-55
2023/01/19 03:58:03;;;;;;;0.52;0.43;;;;;;;-2.44;100.00;99897.06;5060433;28;20028;-52
2023/01/19 04:00:28;;;;;;;2.72;0.10;;;;;;;-2.54;100.00;99899.56;5056497;28;20058;-53
2023/01/19 04:02:54;;;;;;;0.80;0.35;;;;;;;-2.63;100.00;99897.69;5061168;28;20108;-55
2023/01/19 04:05:21;;;;;;;0.38;0.38;;;;;;;-2.63;100.00;99901.13;5073395;28;20036;-54
2023/01/19 04:07:52;;;;;;;1.30;0.15;;;;;;;-2.79;100.00;99910.19;5070804;28;20043;-53
2023/01/19 04:10:19;;;;;;;2.25;0.35;;;;;;;-2.79;100.00;99905.84;5060743;28;20033;-56
2023/01/19 04:12:44;;;;;;;0.90;0.30;;;;;;;-2.71;100.00;99902.66;5061972;28;20032;-52
2023/01/19 04:15:10;;;;;;;0.43;0.08;;;;;;;-2.76;100.00;99904.78;5070224;28;20029;-55
2023/01/19 04:17:37;;;;;;;0.70;0.20;;;;;;;-2.80;100.00;99900.78;5072430;28;20047;-56
2023/01/19 04:20:03;;;;;;;4.05;0.30;;;;;;;-2.68;100.00;99903.25;5064488;28;20032;-53
2023/01/19 04:22:29;;;;;;;1.38;0.30;;;;;;;-2.60;100.00;99901.81;5057137;28;20155;-54
2023/01/19 04:24:54;;;;;;;0.40;0.10;;;;;;;-2.66;100.00;99906.56;5067570;28;20056;-55
2023/01/19 04:27:20;;;;;;;0.40;0.00;;;;;;;-2.59;100.00;99906.88;5079638;28;20029;-55
2023/01/19 04:29:45;;;;;;;0.20;0.20;;;;;;;-2.72;100.00;99904.41;5067804;28;20028;-54
2023/01/19 04:32:12;;;;;;;5.32;1.25;;;;;;;-2.88;100.00;99897.00;5053094;28;20156;-54
2023/01/19 04:34:38;;;;;;;0.85;0.25;;;;;;;-2.98;100.00;99896.06;5069387;28;20455;-56
2023/01/19 04:37:03;;;;;;;0.93;0.50;;;;;;;-3.02;100.00;99899.84;5072061;28;20029;-53
2023/01/19 04:39:29;;;;;;;2.33;0.10;;;;;;;-2.99;100.00;99909.19;5063325;28;20085;-56
2023/01/19 04:41:56;;;;;;;0.57;0.17;;;;;;;-3.01;100.00;99903.28;5054425;28;20497;-54
2023/01/19 04:44:21;;;;;;;3.67;0.38;;;;;;;-3.19;100.00;99908.09;5063345;28;20068;-54
2023/01/19 04:46:47;;;;;;;2.08;0.25;;;;;;;-3.16;100.00;99918.22;5070364;28;20119;-54
2023/01/19 04:49:12;;;;;;;8.43;0.30;;;;;;;-3.16;100.00;99908.69;5068297;28;20052;-56
2023/01/19 04:51:38;;;;;;;0.95;0.15;;;;;;;-3.22;100.00;99909.16;5065035;28;20478;-53
2023/01/19 04:54:03;;;;;;;0.38;0.25;;;;;;;-3.39;100.00;99907.81;5066023;28;20028;-56
2023/01/19 04:56:28;;;;;;;9.45;0.50;;;;;;;-3.38;100.00;99909.50;5062698;28;20493;-54
2023/01/19 04:58:54;;;;;;;1.02;0.32;;;;;;;-3.34;100.00;99917.84;5059582;28;20031;-54
2023/01/19 05:01:19;;;;;;;3.42;0.22;;;;;;;-3.42;100.00;99909.84;5061033;28;20029;-55
2023/01/19 05:03:45;;;;;;;1.40;0.47;;;;;;;-3.47;100.00;99910.16;5061539;28;20032;-52
2023/01/19 05:06:11;;;;;;;0.75;0.20;;;;;;;-3.20;100.00;99899.50;5065985;28;20467;-54
2023/01/19 05:08:37;;;;;;;7.43;0.38;;;;;;;-3.10;100.00;99912.56;5063396;28;20529;-56
2023/01/19 05:11:03;;;;;;;1.25;0.00;;;;;;;-3.14;100.00;99893.00;5059835;28;20040;-55
2023/01/19 05:13:28;;;;;;;2.38;0.98;;;;;;;-3.10;100.00;99886.63;5059859;28;20035;-54
2023/01/19 05:15:54;;;;;;;0.40;0.25;;;;;;;-3.16;100.00;99889.69;5057640;28;20116;-53
2023/01/19 05:18:19;;;;;;;0.20;0.20;;;;;;;-3.38;100.00;99893.94;5067321;28;20033;-52
2023/01/19 05:20:45;;;;;;;0.43;0.10;;;;;;;-3.46;100.00;99888.47;5055026;28;20024;-55
2023/01/19 05:23:10;;;;;;;2.08;0.40;;;;;;;-3.45;100.00;99887.56;5054384;28;20556;-57
2023/01/19 05:25:35;;;;;;;2.63;0.05;;;;;;;-3.43;100.00;99895.19;5064961;28;20104;-55
2023/01/19 05:28:02;;;;;;;3.95;0.22;;;;;;;-3.45;100.00;99884.97;5063823;28;20061;-53
2023/01/19 05:30:27;;;;;;;1.38;0.38;;;;;;;-3.59;100.00;99888.59;5062815;28;20044;-57
2023/01/19 05:32:52;;;;;;;1.77;0.10;;;;;;;-3.54;100.00;99888.25;5057334;28;20021;-54
2023/01/19 05:35:18;;;;;;;0.95;0.10;;;;;;;-3.45;100.00;99882.38;5064830;28;20089;-56
2023/01/19 05:37:43;;;;;;;3.70;0.22;;;;;;;-3.40;100.00;99888.03;5068330;28;20097;-56
2023/01/19 05:40:09;;;;;;;2.85;0.20;;;;;;;-3.26;100.00;99871.44;5057435;28;20060;-51
2023/01/19 05:42:35;;;;;;;1.45;0.20;;;;;;;-2.74;100.00;99874.34;5070916;28;20060;-55
2023/01/19 05:45:01;;;;;;;0.63;0.32;;;;;;;-2.72;100.00;99869.88;5074687;28;20473;-56
2023/01/19 05:47:29;;;;;;;1.02;0.17;;;;;;;-2.59;100.00;99869.72;5075437;28;20130;-55
2023/01/19 05:49:55;;;;;;;1.65;0.20;;;;;;;-2.50;100.00;99866.41;5070376;28;20065;-55
2023/01/19 05:52:21;;;;;;;0.43;0.15;;;;;;;-2.44;100.00;99864.13;5062317;28;20086;-56
2023/01/19 05:54:47;;;;;;;0.20;0.10;;;;;;;-2.82;100.00;99864.56;5055928;28;20071;-52
2023/01/19 05:57:13;;;;;;;3.15;0.30;;;;;;;-2.91;100.00;99868.72;5059001;28;20127;-54
2023/01/19 05:59:38;;;;;;;2.00;0.20;;;;;;;-3.24;100.00;99868.72;5061406;28;20340;-57
2023/01/19 06:02:04;;;;;;;5.10;0.32;;;;;;;-3.12;100.00;99875.56;5068351;28;20485;-55
2023/01/19 06:04:29;;;;;;;1.23;0.47;;;;;;;-3.02;100.00;99881.69;5073341;28;20200;-54
2023/01/19 06:06:54;;;;;;;0.52;0.20;;;;;;;-2.70;100.00;99868.78;5064644;28;20637;-56
2023/01/19 06:09:20;;;;;;;0.82;0.10;;;;;;;-2.50;100.00;99869.81;5067546;28;20036;-56
2023/01/19 06:11:45;;;;;;;4.13;0.20;;;;;;;-2.30;100.00;99867.38;5064003;28;20120;-55
2023/01/19 06:14:11;;;;;;;3.08;0.40;;;;;;;-2.59;100.00;99859.34;5052072;28;20521;-55
2023/01/19 06:16:37;;;;;;;0.10;0.00;;;;;;;-3.03;100.00;99861.06;5057896;28;20036;-54
2023/01/19 06:19:02;;;;;;;0.30;0.30;;;;;;;-3.32;100.00;99861.53;5051194;28;20099;-54
2023/01/19 06:21:27;;;;;;;3.40;0.70;;;;;;;-3.44;100.00;99876.25;5062313;28;20435;-55
2023/01/19 06:23:53;;;;;;;0.95;0.10;;;;;;;-3.50;100.00;99879.31;5054475;28;20299;-56
2023/01/19 06:26:18;;;;;;;0.90;0.10;;;;;;;-3.32;100.00;99880.50;5050657;28;20202;-55
2023/01/19 06:28:43;;;;;;;0.73;0.20;;;;;;;-3.46;100.00;99888.47;5054922;28;20040;-51
2023/01/19 06:31:09;;;;;;;1.60;0.15;;;;;;;-3.59;100.00;99890.34;5049104;28;20090;-55
2023/01/19 06:33:34;;;;;;;0.28;0.20;;;;;;;-3.61;100.00;99887.88;5056620;28;20036;-55
2023/01/19 06:35:59;;;;;;;2.10;0.15;;;;;;;-3.63;100.00;99883.75;5054907;28;20452;-55
2023/01/19 06:38:25;;;;;;;3.83;0.40;;;;;;;-3.49;100.00;99887.91;5060474;28;20040;-53
2023/01/19 06:40:53;;;;;;;0.77;0.15;;;;;;;-3.27;100.00;99876.75;5057144;28;20037;-53
2023/01/19 06:43:19;;;;;;;0.68;0.35;;;;;;;-3.44;100.00;99889.19;5055002;28;20111;-52
2023/01/19 06:45:44;;;;;;;4.13;0.43;;;;;;;-3.43;100.00;99890.03;5053392;28;20115;-55
2023/01/19 06:48:10;;;;;;;0.20;0.10;;;;;;;-3.47;100.00;99889.44;5055635;28;20543;-56
2023/01/19 06:50:35;;;;;;;0.57;0.40;;;;;;;-3.44;100.00;99888.38;5052343;28;20077;-54
2023/01/19 06:53:00;;;;;;;1.27;0.20;;;;;;;-3.41;100.00;99894.16;5058477;28;20492;-53
2023/01/19 06:55:26;;;;;;;1.92;0.40;;;;;;;-3.56;100.00;99893.56;5054478;28;20110;-56
2023/01/19 06:57:58;;;;;;;1.45;0.22;;;;;;;-3.55;100.00;99896.97;5053868;28;20033;-54
2023/01/19 07:00:25;;;;;;;0.65;0.15;;;;;;;-3.68;100.00;99896.22;5055528;28;20036;-51
2023/01/19 07:02:51;;;;;;;8.23;0.85;;;;;;;-3.75;100.00;99899.25;5058547;28;20035;-53
2023/01/19 07:05:16;;;;;;;1.02;0.28;;;;;;;-3.81;100.00;99907.50;5066410;28;20047;-56
2023/01/19 07:07:43;;;;;;;0.93;0.22;;;;;;;-3.96;100.00;99900.84;5068290;28;20013;-54
2023/01/19 07:10:10;;;;;;;1.25;0.20;;;;;;;-4.09;100.00;99903.50;5060246;28;20110;-50
2023/01/19 07:12:36;;;;;;;1.15;0.20;;;;;;;-4.01;100.00;99910.72;5061148;28;20033;-52
2023/01/19 07:15:02;;;;;;;0.95;0.80;;;;;;;-3.82;100.00;99915.38;5053581;28;20087;-53
2023/01/19 07:17:27;;;;;;;2.05;0.57;;;;;;;-3.90;100.00;99915.94;5058680;28;20477;-54
2023/01/19 07:19:52;;;;;;;2.30;0.70;;;;;;;-3.82;100.00;99913.63;5055377;28;20032;-51
2023/01/19 07:22:18;;;;;;;2.25;0.20;;;;;;;-3.80;100.00;99924.69;5060419;28;20036;-51
2023/01/19 07:24:43;;;;;;;1.85;0.63;;;;;;;-3.83;100.00;99919.72;5061467;28;20027;-56
2023/01/19 07:27:10;;;;;;;0.77;0.17;;;;;;;-3.86;100.00;99925.13;5056032;28;20036;-52
2023/01/19 07:29:36;;;;;;;1.75;0.17;;;;;;;-3.59;100.00;99922.28;5059664;28;20064;-54
2023/01/19 07:32:01;;;;;;;1.80;0.30;;;;;;;-3.35;100.00;99918.81;5069556;28;20054;-53
2023/01/19 07:34:26;;;;;;;0.47;0.32;;;;;;;-3.32;100.00;99919.38;5073244;28;20137;-55
2023/01/19 07:36:52;;;;;;;1.42;0.68;;;;;;;-3.56;100.00;99919.47;5068776;28;20563;-55
2023/01/19 07:39:17;;;;;;;2.30;0.28;;;;;;;-3.54;100.00;99927.13;5060020;28;20104;-56
2023/01/19 07:41:42;;;;;;;2.17;0.30;;;;;;;-3.44;100.00;99922.91;5068053;28;20108;-57
2023/01/19 07:44:08;;;;;;;3.78;0.50;;;;;;;-3.43;100.00;99931.50;5058113;28;20040;-53
2023/01/19 07:46:33;;;;;;;5.75;0.70;;;;;;;-3.33;100.00;99932.44;5053973;28;20389;-55
2023/01/19 07:48:59;;;;;;;0.90;0.22;;;;;;;-3.11;100.00;99936.88;5060455;28;20073;-54
2023/01/19 07:51:24;;;;;;;0.95;0.20;;;;;;;-3.18;100.00;99935.66;5067799;28;20028;-54
2023/01/19 07:53:50;;;;;;;2.97;1.10;;;;;;;-3.39;100.00;99920.78;5059383;28;20033;-56
2023/01/19 07:56:16;;;;;;;1.02;0.28;;;;;;;-3.49;100.00;99919.81;5059032;28;20029;-54
2023/01/19 07:58:41;;;;;;;6.25;1.85;;;;;;;-3.51;100.00;99930.31;5063041;28;20051;-57
2023/01/19 08:01:09;;;;;;;1.08;0.47;;;;;;;-3.46;100.00;99926.53;5055729;28;20379;-50
2023/01/19 08:03:34;;;;;;;4.10;0.35;;;;;;;-3.41;100.00;99933.03;5054426;28;20037;-53
2023/01/19 08:06:01;;;;;;;1.73;0.80;;;;;;;-3.43;100.00;99932.34;5057506;28;20045;-55
2023/01/19 08:08:28;;;;;;;2.20;0.65;;;;;;;-3.55;100.00;99934.06;5056109;28;20158;-53
2023/01/19 08:10:53;;;;;;;1.10;0.65;;;;;;;-3.64;100.00;99944.28;5061088;28;20016;-53
2023/01/19 08:13:19;;;;;;;1.00;0.20;;;;;;;-3.62;100.00;99942.41;5059138;28;20067;-55
2023/01/19 08:15:47;;;;;;;1.10;0.30;;;;;;;-3.65;100.00;99942.63;5062703;28;20028;-54
2023/01/19 08:18:14;;;;;;;1.75;0.40;;;;;;;-3.76;100.00;99941.66;5059851;28;20052;-52
2023/01/19 08:20:39;;;;;;;1.55;0.45;;;;;;;-3.93;100.00;99933.47;5056818;28;20028;-52
2023/01/19 08:23:05;;;;;;;4.00;0.68;;;;;;;-4.07;100.00;99930.13;5054824;28;20038;-56
2023/01/19 08:25:34;;;;;;;2.17;0.30;;;;;;;-4.06;100.00;99936.13;5058877;28;20509;-53
2023/01/19 08:27:59;;;;;;;8.82;1.27;;;;;;;-4.23;100.00;99927.81;5058098;28;20202;-54
2023/01/19 08:30:25;;;;;;;1.58;1.00;;;;;;;-4.34;100.00;99935.50;5063803;28;20562;-55
2023/01/19 08:33:02;;;;;;;6.57;1.13;;;;;;;-4.26;100.00;99943.56;5065041;28;20032;-53
2023/01/19 08:35:38;;;;;;;3.97;0.45;;;;;;;-4.17;100.00;99937.72;5065735;28;20016;-55
2023/01/19 08:38:04;;;;;;;4.75;1.17;;;;;;;-4.06;100.00;99947.28;5061853;28;20090;-56
2023/01/19 08:40:34;;;;;;;4.22;1.30;;;;;;;-4.05;100.00;99954.16;5058988;28;20436;-56
2023/01/19 08:43:03;;;;;;;1.50;1.02;;;;;;;-4.08;100.00;99946.59;5058659;28;20074;-51
2023/01/19 08:45:29;;;;;;;9.40;1.13;;;;;;;-4.04;100.00;99952.38;5059071;28;20456;-52
2023/01/19 08:47:57;;;;;;;9.38;1.00;;;;;;;-4.23;100.00;99952.88;5056915;28;20029;-51
2023/01/19 08:50:30;;;;;;;4.75;1.27;;;;;;;-4.29;100.00;99959.28;5058058;28;20056;-55
2023/01/19 08:52:57;;;;;;;5.93;1.98;;;;;;;-4.30;100.00;99960.25;5054205;28;20036;-55
2023/01/19 08:55:23;;;;;;;3.72;1.15;;;;;;;-4.17;100.00;99975.72;5062193;28;20478;-54
2023/01/19 08:57:52;;;;;;;4.57;1.65;;;;;;;-4.20;100.00;99958.66;5056299;28;20043;-53
2023/01/19 09:00:19;;;;;;;10.85;1.35;;;;;;;-4.19;100.00;99962.06;5064850;28;20119;-55
2023/01/19 09:02:44;;;;;;;11.18;1.77;;;;;;;-4.21;100.00;99967.38;5061620;28;20032;-53
2023/01/19 09:05:10;;;;;;;9.75;1.63;;;;;;;-4.22;100.00;99964.88;5057889;28;20086;-55
2023/01/19 09:07:35;;;;;;;5.35;1.02;;;;;;;-4.09;100.00;99965.66;5057886;28;20116;-55
2023/01/19 09:10:02;;;;;;;6.05;1.48;;;;;;;-4.20;100.00;99974.19;5063730;28;20036;-52
2023/01/19 09:12:28;;;;;;;2.22;1.17;;;;;;;-4.35;100.00;99969.28;5060843;28;20064;-53
2023/01/19 09:14:53;;;;;;;7.30;1.45;;;;;;;-4.38;100.00;99967.72;5054607;28;20486;-51
2023/01/19 09:17:18;;;;;;;10.80;2.40;;;;;;;-4.30;100.00;99972.38;5058714;28;20112;-50
2023/01/19 09:19:44;;;;;;;19.02;2.80;;;;;;;-4.12;100.00;99965.88;5058114;28;20477;-52
2023/01/19 09:22:09;;;;;;;7.93;2.58;;;;;;;-3.86;100.00;99976.13;5054891;28;20148;-53
2023/01/19 09:24:35;;;;;;;8.80;1.50;;;;;;;-3.67;100.00;99985.97;5057739;28;20445;-55
2023/01/19 09:27:01;;;;;;;10.88;3.15;;;;;;;-3.51;100.00;99981.34;5059615;28;20036;-49
2023/01/19 09:29:26;;;;;;;11.60;3.67;;;;;;;-3.41;100.00;99982.28;5067490;28;20032;-54
2023/01/19 09:31:51;;;;;;;12.90;4.57;;;;;;;-3.35;100.00;99981.84;5064340;28;20286;-54
2023/01/19 09:34:17;;;;;;;13.48;4.43;;;;;;;-3.18;100.00;99983.16;5063856;28;20032;-55
2023/01/19 09:36:42;;;;;;;6.03;2.88;;;;;;;-2.97;100.00;99990.28;5069886;28;20028;-53
2023/01/19 09:39:09;;;;;;;5.53;3.28;;;;;;;-2.87;100.00;99991.22;5071271;28;20025;-52
2023/01/19 09:41:37;;;;;;;8.65;3.30;;;;;;;-2.82;100.00;99991.72;5079401;28;20031;-54
2023/01/19 09:44:03;;;;;;;7.20;2.63;;;;;;;-2.72;100.00;99987.47;5067110;28;20036;-53
2023/01/19 09:46:31;;;;;;;10.00;2.85;;;;;;;-2.55;100.00;99986.19;5055198;28;20124;-55
2023/01/19 09:49:03;;;;;;;4.95;2.05;;;;;;;-2.33;100.00;100005.28;5059227;28;20068;-53
2023/01/19 09:51:35;;;;;;;6.70;2.15;;;;;;;-2.17;100.00;99997.91;5066104;28;20592;-55
2023/01/19 09:54:03;;;;;;;5.10;1.95;;;;;;;-2.13;100.00;99996.75;5061792;28;20162;-55
2023/01/19 09:56:30;;;;;;;7.93;2.20;;;;;;;-2.05;100.00;99996.97;5055738;28;20393;-54
2023/01/19 09:58:56;;;;;;;14.45;3.47;;;;;;;-1.98;100.00;99999.91;5069680;28;20032;-54
2023/01/19 10:01:37;;;;;;;13.65;3.92;;;;;;;-1.80;100.00;100001.03;5055364;28;20025;-53
2023/01/19 10:04:39;;;;;;;11.82;3.95;;;;;;;-1.34;100.00;100009.47;5059308;28;20051;-55
2023/01/19 10:07:04;;;;;;;25.98;6.10;;;;;;;-1.03;100.00;100012.13;5058504;28;20036;-54
2023/01/19 10:09:40;;;;;;;18.33;7.32;;;;;;;-0.89;100.00;100012.63;5068947;28;20334;-54
2023/01/19 10:12:24;;;;;;;19.13;6.13;;;;;;;-0.67;100.00;100009.06;5068733;28;20032;-51
2023/01/19 10:14:58;;;;;;;9.18;4.38;;;;;;;-0.70;100.00;100016.28;5057919;28;20111;-50
2023/01/19 10:18:00;;;;;;;13.48;4.53;;;;;;;-0.86;100.00;100013.34;5058896;28;20037;-52
2023/01/19 10:20:32;;;;;;;10.85;3.72;;;;;;;-0.91;100.00;100005.91;5062500;28;20047;-52
2023/01/19 10:22:58;;;;;;;;;;;;;;;-0.71;100.00;100012.03;5057632;28;20055;-53
2023/01/19 10:25:24;;;;;;;6.38;2.72;;;;;;;-0.72;100.00;100019.03;5061525;28;20403;-52
2023/01/19 10:27:49;;;;;;;9.68;3.72;;;;;;;-0.53;100.00;100020.88;5060725;28;20028;-50
2023/01/19 10:30:22;;;;;;;11.93;4.30;;;;;;;-0.64;100.00;100018.38;5058364;28;20425;-49
2023/01/19 10:32:49;;;;;;;20.60;9.65;;;;;;;-0.69;100.00;100023.97;5051238;28;20086;-49
2023/01/19 10:35:22;;;;;;;14.30;5.90;;;;;;;-0.62;100.00;100031.25;5063292;28;20057;-51
2023/01/19 10:37:48;;;;;;;16.33;5.90;;;;;;;-0.40;100.00;100035.47;5070970;28;20028;-53
2023/01/19 10:40:38;;;;;;;10.60;4.75;;;;;;;-0.28;100.00;100024.84;5055381;28;20031;-52
2023/01/19 10:43:35;;;;;;;8.73;4.85;;;;;;;-0.20;100.00;100029.38;5059430;28;20489;-51
2023/01/19 10:46:16;;;;;;;10.80;3.42;;;;;;;0.01;100.00;100029.28;5059971;28;20049;-51
2023/01/19 10:48:42;;;;;;;10.75;4.38;;;;;;;0.21;100.00;100035.38;5058447;28;20094;-53
2023/01/19 10:51:09;;;;;;;10.65;5.35;;;;;;;0.92;100.00;100031.66;5062226;28;20528;-54
2023/01/19 10:53:36;;;;;;;7.78;2.83;;;;;;;1.39;100.00;100024.66;5058871;28;20033;-50
2023/01/19 10:56:23;;;;;;;8.40;3.80;;;;;;;1.75;100.00;100019.56;5065181;28;20037;-55
2023/01/19 10:58:48;;;;;;;3.60;2.22;;;;;;;1.82;100.00;100009.38;5057088;28;20036;-51
2023/01/19 11:01:19;;;;;;;4.55;2.00;;;;;;;1.84;100.00;100002.22;5060429;28;20378;-52
2023/01/19 11:03:45;;;;;;;7.15;4.00;;;;;;;2.00;100.00;99998.94;5065142;28;20024;-53
2023/01/19 11:06:17;;;;;;;4.80;2.67;;;;;;;1.73;100.00;100005.84;5069725;28;20040;-49
2023/01/19 11:08:44;;;;;;;11.32;4.32;;;;;;;1.69;100.00;100007.91;5058679;28;20401;-53
2023/01/19 11:11:13;;;;;;;8.75;3.30;;;;;;;2.42;100.00;100001.81;5068438;28;20078;-51
2023/01/19 11:13:40;;;;;;;7.00;2.95;;;;;;;2.73;100.00;99993.56;5069845;28;20020;-56
2023/01/19 11:16:26;;;;;;;3.90;2.03;;;;;;;2.60;100.00;99996.56;5081574;28;20035;-50
2023/01/19 11:18:54;;;;;;;3.45;1.73;;;;;;;2.17;100.00;99993.75;5064437;28;20385;-50
2023/01/19 11:21:24;;;;;;;9.23;2.45;;;;;;;2.03;100.00;99988.19;5055229;28;20029;-54
2023/01/19 11:23:52;;;;;;;3.65;2.38;;;;;;;2.18;100.00;99997.16;5061718;28;20028;-56
2023/01/19 11:26:38;;;;;;;4.15;2.88;;;;;;;2.37;100.00;100002.25;5066417;28;20714;-52
2023/01/19 11:29:04;;;;;;;4.57;2.63;;;;;;;2.57;100.00;100007.34;5053421;28;20063;-55
2023/01/19 11:31:31;;;;;;;2.47;1.90;;;;;;;2.94;100.00;100004.50;5060993;28;20090;-49
2023/01/19 11:34:33;;;;;;;6.60;3.30;;;;;;;3.31;100.00;100005.25;5073178;28;20034;-51
2023/01/19 11:37:26;;;;;;;5.32;2.10;;;;;;;3.55;100.00;99997.50;5064702;28;20056;-50
2023/01/19 11:39:54;;;;;;;5.90;2.30;;;;;;;3.80;100.00;99997.59;5072388;28;20028;-50